Battlefield, MO

4:57 PM CDT on April 18, 2015 (GMT -0500)
Joplin Regional | | Change Station
CLOSE
Current Station
Airport
Location: Joplin,
Elevation: 981 ft
Nearby Weather Stations

Elev 981 ft 37.15 °N, 94.50 °W | Updated 4 minutes ago

Mostly Cloudy
Mostly Cloudy
68 °F
Feels Like 68 °F
N
7
Wind Variable Wind from East

Today
High -- | Low -- °F
--% Chance of Precip.
Yesterday
High -- | Low -- °F
Precip. -- in
6:35 AM 7:50 PM
New Moon, 0% visible
Pressure 29.85 in
Visibility 10.0 miles
Clouds Mostly Cloudy 2700 ft
Mostly Cloudy 3300 ft
Overcast 8000 ft
Dew Point 59 °F
Humidity 73%
Rainfall 1.20 in
Snow Depth Not available.
UV 1 out of 12
Pollen 3.30 out of 12
Air Quality Not available.
Flu Activity Local Activity
METAR KJLN 182153Z 10006KT 10SM BKN027 BKN033 OVC080 20/15 A2987 RMK AO2 SLP108 T02000150

More Conditions Fewer Conditions

Pressure 29.85 in
Visibility 10.0 miles
Clouds Mostly Cloudy 2700 ft
Mostly Cloudy 3300 ft
Overcast 8000 ft
Dew Point 59 °F
Humidity 73%
Rainfall 1.20 in
Snow Depth Not available.
UV 1 out of 12
Pollen 3.30 out of 12
Air Quality Not available.
Flu Activity Local Activity
METAR KJLN 182153Z 10006KT 10SM BKN027 BKN033 OVC080 20/15 A2987 RMK AO2 SLP108 T02000150

More Conditions Fewer Conditions

10-Day Weather Forecast

Almanac

Astronomy

Apr. 18, 2015 Rise Set
Actual Time
Civil Twilight
Nautical Twilight
Astronomical Twilight
Moon
Length of Visible Light
Length of Day
Tomorrow will be .
, % of the Moon is Illuminated

Today's Extremes

State Highs State Lows

Community

WunderPhotos

Upload Photos

1,814,538 photos uploaded!

WunderBlogs® & News

Nearby

Air Quality

  Air Quality AQ Index Pollutant
Not available.

Snow Depth

Station Depth Elevation

Earthquake Activity

City Distance Mag. Time & Date
Minimum magnitude displayed is 2.5.

Coastal Water Temperatures

Place Temperature

Stations

Nearby Weather Stations

Station Location Temp. Windchill Dew Point Humidity Wind Precip. Elev Updated Type